Time;durP1;ratioP1;P1;durP2;ratioP2;P2;SDS_P1;SDS_P2;PMS_P1;PMS_P2;Temp;Humidity;BMP_temperature;BMP_pressure;BME280_temperature;BME280_humidity;BME280_pressure;Samples;Min_cycle;Max_cycle;Signal;HPM_P1;HPM_P2
2022/03/15 00:02:43;;;;;;;7.37;3.87;;;;;;;3.70;40.66;101319.09;4291723;33;35062;-96
2022/03/15 00:06:38;;;;;;;6.82;3.45;;;;;;;3.51;41.12;101308.06;4303298;33;33577;-96
2022/03/15 00:09:52;;;;;;;6.47;3.65;;;;;;;3.66;40.73;101306.94;4259132;33;33073;-95
2022/03/15 00:12:56;;;;;;;7.15;4.20;;;;;;;3.68;40.64;101293.38;4284354;33;33506;-96
2022/03/15 00:16:26;;;;;;;5.47;3.28;;;;;;;3.76;40.27;101299.66;4259895;33;35248;-96
2022/03/15 00:19:35;;;;;;;7.18;3.45;;;;;;;3.76;40.43;101307.38;4283958;33;32626;-96
2022/03/15 00:23:04;;;;;;;5.57;3.40;;;;;;;3.68;40.73;101301.06;4271842;33;31842;-95
2022/03/15 00:25:55;;;;;;;6.07;3.97;;;;;;;3.63;40.93;101292.31;4276107;33;33992;-96
2022/03/15 00:29:05;;;;;;;6.97;3.17;;;;;;;3.51;41.23;101286.69;4284983;33;33958;-96
2022/03/15 00:32:19;;;;;;;4.68;3.45;;;;;;;3.31;41.55;101284.16;4287259;33;34220;-96
2022/03/15 00:35:25;;;;;;;5.97;3.70;;;;;;;3.52;41.19;101284.16;4283730;33;33300;-96
2022/03/15 00:38:54;;;;;;;5.35;3.35;;;;;;;3.58;41.25;101279.28;4284085;33;34409;-96
2022/03/15 00:42:23;;;;;;;6.72;4.03;;;;;;;3.62;41.25;101290.53;4269719;33;32808;-96
2022/03/15 00:45:35;;;;;;;7.93;3.58;;;;;;;3.59;41.21;101288.72;4270695;33;32313;-96
2022/03/15 00:48:44;;;;;;;7.93;3.80;;;;;;;3.80;41.04;101293.84;4286624;33;34044;-96
2022/03/15 00:52:14;;;;;;;8.75;3.50;;;;;;;3.72;40.98;101284.97;4290241;33;34071;-96
2022/03/15 00:55:24;;;;;;;6.25;3.55;;;;;;;3.12;42.70;101286.78;4275808;33;32545;-96
2022/03/15 00:58:33;;;;;;;5.10;3.58;;;;;;;3.57;41.73;101294.59;4274324;33;33690;-96
2022/03/15 01:01:24;;;;;;;9.32;4.78;;;;;;;3.39;41.87;101284.47;4258086;33;32350;-96
2022/03/15 01:05:13;;;;;;;7.00;4.25;;;;;;;3.40;41.73;101281.94;4259594;33;32850;-96
2022/03/15 01:08:42;;;;;;;6.57;4.25;;;;;;;3.45;41.95;101271.00;4268570;33;33338;-96
2022/03/15 01:12:12;;;;;;;7.35;4.05;;;;;;;3.46;41.97;101258.25;4270908;33;34841;-96
2022/03/15 01:15:24;;;;;;;9.60;3.92;;;;;;;3.21;42.31;101253.78;4262816;33;33602;-96
2022/03/15 01:18:56;;;;;;;7.75;3.55;;;;;;;3.68;41.62;101256.56;4270597;33;35524;-96
2022/03/15 01:22:09;;;;;;;9.43;4.25;;;;;;;3.68;41.02;101254.88;4259553;33;34018;-96
2022/03/15 01:25:18;;;;;;;8.10;3.83;;;;;;;3.40;42.20;101242.59;4270960;33;34011;-96
2022/03/15 01:28:32;;;;;;;9.43;4.40;;;;;;;3.58;41.83;101245.94;4267832;33;32648;-94
2022/03/15 01:32:02;;;;;;;8.32;4.75;;;;;;;3.20;42.60;101240.09;4256866;33;34711;-96
2022/03/15 01:35:32;;;;;;;6.65;3.85;;;;;;;3.20;42.78;101241.78;4269646;33;33728;-96
2022/03/15 01:38:23;;;;;;;7.32;4.10;;;;;;;3.56;41.99;101236.41;4274848;33;34708;-96
2022/03/15 01:41:54;;;;;;;6.93;3.22;;;;;;;3.45;42.13;101243.66;4257452;33;32600;-96
2022/03/15 01:45:27;;;;;;;4.18;3.05;;;;;;;3.74;41.42;101247.37;4262460;33;32811;-96
2022/03/15 01:48:37;;;;;;;8.23;4.47;;;;;;;3.45;42.07;101248.78;4257277;33;32911;-96
2022/03/15 01:52:30;;;;;;;5.90;3.70;;;;;;;3.35;42.48;101249.25;4268709;33;33413;-96
2022/03/15 01:55:59;;;;;;;5.50;3.47;;;;;;;3.48;42.19;101253.16;4256483;33;32685;-96
2022/03/15 01:59:49;;;;;;;6.62;3.45;;;;;;;3.50;41.84;101261.81;4268797;33;34347;-96
2022/03/15 02:02:58;;;;;;;6.97;4.30;;;;;;;3.36;42.38;101261.28;4273390;33;33645;-96
2022/03/15 02:06:27;;;;;;;5.32;3.45;;;;;;;3.48;42.24;101253.16;4270251;33;34138;-96
2022/03/15 02:09:58;;;;;;;5.82;3.80;;;;;;;3.00;43.05;101256.34;4272061;33;32887;-96
2022/03/15 02:12:48;;;;;;;5.85;3.97;;;;;;;3.07;43.00;101245.53;4270415;33;33073;-96
2022/03/15 02:15:57;;;;;;;5.07;3.67;;;;;;;3.20;42.71;101244.34;4256043;33;34126;-96
2022/03/15 02:19:46;;;;;;;6.70;4.32;;;;;;;3.39;42.28;101246.87;4257052;33;34211;-96
2022/03/15 02:23:17;;;;;;;7.82;4.03;;;;;;;3.36;42.06;101235.62;4255172;33;33594;-96
2022/03/15 02:27:05;;;;;;;7.22;4.30;;;;;;;3.14;42.97;101244.09;4267077;33;32616;-96
2022/03/15 02:30:15;;;;;;;7.45;4.40;;;;;;;3.13;43.03;101238.09;4254432;33;34061;-96
2022/03/15 02:33:05;;;;;;;7.62;4.70;;;;;;;3.14;42.94;101244.09;4267814;33;33725;-96
2022/03/15 02:36:54;;;;;;;6.18;3.87;;;;;;;3.18;43.07;101238.28;4268584;33;32906;-96
2022/03/15 02:40:25;;;;;;;5.97;3.62;;;;;;;3.42;42.16;101243.53;4272337;33;34279;-95
2022/03/15 02:43:15;;;;;;;5.85;2.97;;;;;;;3.14;42.75;101260.37;4258001;33;35528;-95
2022/03/15 02:47:08;;;;;;;9.95;4.72;;;;;;;2.78;43.76;101254.56;4258505;33;31565;-95
2022/03/15 02:50:19;;;;;;;7.97;4.22;;;;;;;2.60;44.17;101254.59;4262759;33;33683;-94
2022/03/15 02:53:08;;;;;;;7.68;3.62;;;;;;;2.86;43.72;101258.31;4266329;33;33986;-96
2022/03/15 02:55:59;;;;;;;8.55;3.87;;;;;;;3.02;43.55;101256.41;4264829;33;33893;-95
2022/03/15 02:59:08;;;;;;;10.10;4.97;;;;;;;3.16;43.57;101262.97;4271843;33;33534;-96
2022/03/15 03:01:38;;;;;;;6.50;4.60;;;;;;;2.97;43.87;101256.19;4273145;33;32916;-95
2022/03/15 03:04:47;;;;;;;8.93;3.40;;;;;;;2.89;44.18;101253.31;4273415;33;33922;-96
2022/03/15 03:07:56;;;;;;;7.25;3.92;;;;;;;2.88;44.38;101253.25;4272183;33;33533;-96
2022/03/15 03:11:46;;;;;;;5.70;3.95;;;;;;;3.07;43.76;101255.78;4266374;33;34901;-96
2022/03/15 03:14:54;;;;;;;6.45;3.75;;;;;;;2.61;44.85;101258.03;4267187;33;35241;-94
2022/03/15 03:18:04;;;;;;;10.43;4.68;;;;;;;2.55;44.98;101240.72;4267179;33;33511;-95
2022/03/15 03:20:35;;;;;;;6.82;4.57;;;;;;;2.53;45.30;101250.03;4266045;33;33708;-95
2022/03/15 03:23:24;;;;;;;7.57;4.18;;;;;;;2.54;45.06;101247.53;4268453;33;34724;-95
2022/03/15 03:26:54;;;;;;;6.43;4.07;;;;;;;2.66;44.84;101249.75;4262413;33;32245;-94
2022/03/15 03:30:27;;;;;;;7.68;4.55;;;;;;;2.37;44.90;101250.13;4255672;33;33186;-94
2022/03/15 03:33:54;;;;;;;6.85;4.07;;;;;;;2.51;44.74;101249.97;4257200;33;34768;-95
2022/03/15 03:36:42;;;;;;;8.15;4.15;;;;;;;2.68;44.49;101244.69;4256020;33;32864;-96
2022/03/15 03:40:14;;;;;;;7.47;3.95;;;;;;;2.99;43.33;101239.19;4266486;33;33363;-93
2022/03/15 03:44:25;;;;;;;6.05;3.83;;;;;;;2.77;43.97;101251.09;4258033;33;32570;-95
2022/03/15 03:47:14;;;;;;;5.47;3.45;;;;;;;2.42;44.86;101262.34;4265441;33;33926;-96
2022/03/15 03:50:44;;;;;;;6.97;3.92;;;;;;;2.49;44.85;101258.38;4260269;33;33548;-94
2022/03/15 03:53:33;;;;;;;5.30;3.58;;;;;;;2.43;44.77;101253.84;4271314;33;32062;-95
2022/03/15 03:56:42;;;;;;;5.62;4.03;;;;;;;2.76;44.53;101257.03;4263479;33;33163;-94
2022/03/15 03:59:34;;;;;;;5.37;3.55;;;;;;;2.75;44.51;101262.09;4278119;33;32842;-96
2022/03/15 04:02:26;;;;;;;5.55;4.25;;;;;;;3.06;43.71;101263.41;4283304;33;34672;-95
2022/03/15 04:05:40;;;;;;;4.97;3.55;;;;;;;2.80;44.44;101272.53;4269426;33;31809;-94
2022/03/15 04:08:27;;;;;;;4.43;3.25;;;;;;;2.78;44.43;101265.69;4282932;33;33662;-94
2022/03/15 04:11:57;;;;;;;7.22;3.70;;;;;;;2.74;44.34;101261.22;4274146;33;32516;-95
2022/03/15 04:15:29;;;;;;;5.25;3.45;;;;;;;2.61;44.51;101260.59;4269534;33;33789;-93
2022/03/15 04:18:37;;;;;;;;;;;;;;;2.53;44.60;101261.13;4286114;33;34622;-95
2022/03/15 04:21:27;;;;;;;6.30;3.25;;;;;;;2.39;44.88;101257.06;4290129;33;33786;-94
2022/03/15 04:24:36;;;;;;;6.22;3.85;;;;;;;2.37;45.06;101260.37;4285798;33;33873;-93
2022/03/15 04:27:26;;;;;;;5.65;3.55;;;;;;;2.45;44.85;101262.50;4283971;33;32640;-94
2022/03/15 04:30:16;;;;;;;4.60;3.28;;;;;;;2.39;45.03;101266.44;4286486;33;34063;-94
2022/03/15 04:33:07;;;;;;;15.18;4.10;;;;;;;2.31;44.97;101261.84;4284534;33;32757;-93
2022/03/15 04:35:56;;;;;;;;;;;;;;;2.36;44.86;101272.31;4281305;33;32530;-94
2022/03/15 04:38:27;;;;;;;5.63;3.47;;;;;;;2.43;44.52;101276.91;4286004;33;34830;-94
2022/03/15 04:41:16;;;;;;;5.40;3.53;;;;;;;2.46;44.39;101277.03;4285291;33;34640;-93
2022/03/15 04:44:26;;;;;;;7.35;3.85;;;;;;;2.35;44.68;101281.69;4282133;33;34570;-94
2022/03/15 04:47:36;;;;;;;5.50;3.50;;;;;;;2.32;44.77;101280.66;4283061;33;33382;-93
2022/03/15 04:50:30;;;;;;;7.05;3.35;;;;;;;2.25;44.73;101281.22;4285328;33;35995;-94
2022/03/15 04:53:21;;;;;;;5.25;3.12;;;;;;;2.40;44.44;101284.47;4272832;33;31991;-94
2022/03/15 04:56:09;;;;;;;5.45;3.35;;;;;;;2.35;44.58;101291.06;4272494;33;33636;-93
2022/03/15 04:59:24;;;;;;;7.50;3.97;;;;;;;2.30;44.97;101287.41;4288201;33;32973;-93
2022/03/15 05:02:29;;;;;;;7.07;3.45;;;;;;;2.32;44.98;101290.91;4271433;33;33372;-94
2022/03/15 05:05:21;;;;;;;4.72;3.28;;;;;;;2.35;45.11;101288.50;4283696;33;33072;-94
2022/03/15 05:08:34;;;;;;;5.70;3.90;;;;;;;2.32;45.00;101290.91;4282568;33;33628;-93
2022/03/15 05:11:46;;;;;;;5.20;3.67;;;;;;;2.39;44.81;101292.06;4269883;33;33365;-94
2022/03/15 05:14:16;;;;;;;5.70;3.97;;;;;;;2.47;44.81;101293.31;4276475;33;34629;-95
2022/03/15 05:17:30;;;;;;;6.28;3.50;;;;;;;2.40;45.04;101297.28;4274515;33;33348;-94
2022/03/15 05:20:00;;;;;;;8.10;4.10;;;;;;;2.62;44.34;101295.69;4284364;33;32565;-95
2022/03/15 05:23:13;;;;;;;8.98;3.78;;;;;;;2.60;44.07;101281.91;4270329;33;33400;-94
2022/03/15 05:25:42;;;;;;;8.55;3.55;;;;;;;2.75;44.07;101287.72;4285278;33;32326;-92
2022/03/15 05:28:22;;;;;;;7.80;5.20;;;;;;;2.80;44.28;101288.78;4259263;33;32742;-93
2022/03/15 05:31:15;;;;;;;5.35;3.50;;;;;;;2.75;44.48;101282.59;4276032;33;33046;-94
2022/03/15 05:34:06;;;;;;;7.05;3.65;;;;;;;2.97;43.47;101279.25;4260760;33;32814;-93
2022/03/15 05:36:55;;;;;;;4.32;3.42;;;;;;;2.96;43.29;101280.97;4286901;33;34979;-96
2022/03/15 05:39:49;;;;;;;10.00;3.80;;;;;;;3.04;43.03;101290.66;4270894;33;33256;-93
2022/03/15 05:42:38;;;;;;;6.75;4.40;;;;;;;2.93;43.70;101288.53;4283409;33;34305;-95
2022/03/15 05:45:28;;;;;;;7.20;3.90;;;;;;;3.22;43.15;101290.59;4284000;33;34635;-94
2022/03/15 05:48:37;;;;;;;8.63;4.30;;;;;;;3.19;43.33;101291.34;4272605;33;32531;-94
2022/03/15 05:51:26;;;;;;;8.43;5.00;;;;;;;3.40;43.01;101291.34;4288447;33;32707;-95
2022/03/15 05:54:23;;;;;;;7.70;4.78;;;;;;;3.28;43.33;101289.12;4281003;33;33108;-93
2022/03/15 05:57:54;;;;;;;10.05;5.30;;;;;;;3.53;42.71;101282.50;4289517;33;33953;-95
2022/03/15 06:01:03;;;;;;;9.00;5.47;;;;;;;3.43;43.17;101281.19;4275565;33;33447;-96
2022/03/15 06:03:53;;;;;;;9.20;4.78;;;;;;;3.50;43.25;101283.22;4271341;33;32140;-96
2022/03/15 06:07:23;;;;;;;6.82;4.25;;;;;;;3.53;43.00;101283.34;4273783;33;33429;-93
2022/03/15 06:10:33;;;;;;;9.15;4.53;;;;;;;3.71;42.76;101283.22;4284238;33;33767;-96
2022/03/15 06:13:51;;;;;;;8.40;4.80;;;;;;;3.71;42.78;101290.91;4287282;33;31560;-93
2022/03/15 06:17:02;;;;;;;11.02;5.57;;;;;;;3.75;43.07;101290.22;4286341;33;33824;-95
2022/03/15 06:19:53;;;;;;;9.63;4.53;;;;;;;3.80;42.82;101288.72;4284199;33;34648;-95
2022/03/15 06:23:24;;;;;;;7.37;4.70;;;;;;;3.92;43.05;101290.03;4271712;33;34315;-96
2022/03/15 06:26:52;;;;;;;9.88;5.03;;;;;;;4.06;42.92;101289.75;4285725;33;34262;-95
2022/03/15 06:30:44;;;;;;;8.90;4.10;;;;;;;4.05;42.92;101295.69;4271382;33;32836;-96
2022/03/15 06:33:34;;;;;;;8.48;4.70;;;;;;;4.12;42.94;101296.81;4284800;33;33675;-96
2022/03/15 06:36:06;;;;;;;8.52;5.35;;;;;;;4.26;42.82;101303.34;4280739;33;34074;-96
2022/03/15 06:38:54;;;;;;;10.98;5.10;;;;;;;3.88;43.23;101304.41;4286437;33;34496;-95
2022/03/15 06:42:11;;;;;;;10.13;5.68;;;;;;;4.10;43.08;101298.44;4270211;33;32470;-96
2022/03/15 06:45:17;;;;;;;9.43;5.40;;;;;;;4.13;42.84;101302.81;4270669;33;33029;-96
2022/03/15 06:48:09;;;;;;;8.07;4.80;;;;;;;4.28;42.43;101298.28;4271682;33;32685;-95
2022/03/15 06:50:58;;;;;;;;;;;;;;;3.88;43.39;101295.84;4272123;33;35070;-95
2022/03/15 06:54:27;;;;;;;7.57;5.22;;;;;;;3.80;43.25;101299.00;4271645;33;32698;-95
2022/03/15 06:57:57;;;;;;;9.43;4.62;;;;;;;3.43;43.92;101286.34;4273577;33;32606;-96
2022/03/15 07:01:26;;;;;;;7.80;5.22;;;;;;;3.49;44.27;101284.03;4270200;33;33222;-96
2022/03/15 07:05:16;;;;;;;9.20;4.75;;;;;;;3.50;43.91;101264.37;4282438;33;34312;-96
2022/03/15 07:08:27;;;;;;;7.75;4.47;;;;;;;3.54;44.38;101269.69;4275008;33;33448;-96
2022/03/15 07:11:57;;;;;;;10.10;4.90;;;;;;;3.71;44.16;101257.53;4287365;33;33016;-96
2022/03/15 07:15:10;;;;;;;;;;;;;;;3.76;44.55;101268.88;4275079;33;34625;-96
2022/03/15 07:19:02;;;;;;;7.43;4.53;;;;;;;4.19;43.76;101267.97;4265244;33;33101;-96
2022/03/15 07:22:47;;;;;;;8.77;4.90;;;;;;;4.28;43.67;101265.75;4267695;33;33173;-96
2022/03/15 07:30:12;;;;;;;10.52;6.20;;;;;;;4.90;42.19;101268.88;4290421;33;34148;-94
2022/03/15 07:32:41;;;;;;;8.82;5.05;;;;;;;5.13;41.04;101263.63;4285721;33;33624;-94
2022/03/15 07:35:10;;;;;;;11.12;5.85;;;;;;;5.65;39.42;101269.62;4277202;33;33564;-95
2022/03/15 07:37:50;;;;;;;8.48;5.37;;;;;;;5.27;38.48;101264.13;4280374;33;33901;-95
2022/03/15 07:40:19;;;;;;;8.93;4.18;;;;;;;5.63;37.44;101267.03;4281418;33;34066;-94
2022/03/15 07:42:49;;;;;;;9.02;5.87;;;;;;;5.59;37.04;101272.03;4268357;33;32283;-95
2022/03/15 07:45:18;;;;;;;8.43;4.62;;;;;;;5.67;37.23;101273.13;4285629;33;32789;-94
2022/03/15 07:47:48;;;;;;;9.30;6.00;;;;;;;5.93;37.48;101277.41;4269372;33;32772;-94
2022/03/15 07:50:18;;;;;;;7.20;5.03;;;;;;;6.51;36.34;101273.16;4268166;33;32762;-94
2022/03/15 07:52:51;;;;;;;10.20;5.80;;;;;;;6.12;37.57;101270.28;4267673;33;33380;-95
2022/03/15 07:55:21;;;;;;;11.48;6.43;;;;;;;6.76;37.02;101268.69;4277972;33;33064;-94
2022/03/15 07:57:50;;;;;;;7.20;4.53;;;;;;;6.74;36.98;101278.06;4266071;33;32192;-94
2022/03/15 08:00:22;;;;;;;9.38;5.37;;;;;;;6.72;36.69;101266.88;4283091;33;33768;-94
2022/03/15 08:02:52;;;;;;;9.57;6.45;;;;;;;6.44;37.21;101268.66;4272020;33;33148;-94
2022/03/15 08:05:22;;;;;;;7.97;5.32;;;;;;;6.99;36.67;101266.75;4283681;33;32872;-94
2022/03/15 08:07:53;;;;;;;9.97;6.20;;;;;;;7.00;36.54;101273.63;4256818;33;34778;-93
2022/03/15 08:10:22;;;;;;;11.55;6.68;;;;;;;6.94;36.82;101268.31;4280765;33;33669;-93
2022/03/15 08:12:51;;;;;;;12.65;6.15;;;;;;;7.58;35.81;101275.13;4283572;33;33834;-94
2022/03/15 08:15:20;;;;;;;9.88;6.50;;;;;;;7.29;36.36;101276.97;4266109;33;31388;-94
2022/03/15 08:17:48;;;;;;;10.52;5.90;;;;;;;7.44;36.38;101273.91;4279913;33;34638;-93
2022/03/15 08:20:19;;;;;;;10.95;6.12;;;;;;;7.93;35.41;101275.09;4281152;33;33368;-94
2022/03/15 08:22:49;;;;;;;10.43;5.55;;;;;;;7.70;35.58;101265.06;4283173;33;34151;-95
2022/03/15 08:25:19;;;;;;;10.27;6.53;;;;;;;8.33;35.10;101263.03;4280358;33;32060;-93
2022/03/15 08:27:48;;;;;;;11.80;6.72;;;;;;;8.54;34.69;101258.34;4273810;33;32612;-95
2022/03/15 08:30:20;;;;;;;11.23;7.30;;;;;;;8.54;34.53;101260.94;4268087;33;32600;-94
2022/03/15 08:32:49;;;;;;;9.05;6.10;;;;;;;8.18;34.94;101260.13;4263361;33;32985;-94
2022/03/15 08:35:18;;;;;;;8.50;5.18;;;;;;;8.76;33.86;101258.78;4278970;33;32924;-94
2022/03/15 08:37:50;;;;;;;9.15;6.90;;;;;;;8.40;33.81;101244.25;4284040;33;33502;-94
2022/03/15 08:40:24;;;;;;;10.90;6.05;;;;;;;9.01;33.57;101259.22;4278373;33;34283;-93
2022/03/15 08:42:56;;;;;;;9.23;5.18;;;;;;;8.91;33.09;101250.44;4271764;33;33261;-93
2022/03/15 08:45:25;;;;;;;10.15;5.78;;;;;;;9.07;32.96;101249.88;4279901;33;33192;-95
2022/03/15 08:47:53;;;;;;;12.32;5.20;;;;;;;9.28;32.43;101245.91;4272665;33;33903;-94
2022/03/15 08:50:22;;;;;;;10.75;5.85;;;;;;;8.93;32.18;101246.16;4278086;33;33702;-95
2022/03/15 08:52:55;;;;;;;10.15;5.78;;;;;;;9.34;31.49;101233.94;4277093;33;34725;-94
2022/03/15 08:55:26;;;;;;;10.63;6.70;;;;;;;9.55;31.28;101229.97;4271360;33;32490;-93
2022/03/15 08:57:55;;;;;;;10.57;5.75;;;;;;;9.95;30.62;101213.25;4273598;33;31543;-94
2022/03/15 09:00:24;;;;;;;11.60;5.72;;;;;;;10.10;30.25;101220.41;4273503;33;33743;-94
2022/03/15 09:02:52;;;;;;;11.12;6.65;;;;;;;10.03;30.43;101229.81;4271309;33;33859;-94
2022/03/15 09:05:22;;;;;;;9.80;6.03;;;;;;;10.77;29.36;101216.87;4282048;33;33868;-95
2022/03/15 09:07:53;;;;;;;10.00;5.70;;;;;;;10.83;28.87;101212.63;4271188;33;33705;-95
2022/03/15 09:10:23;;;;;;;8.57;5.43;;;;;;;10.87;28.88;101216.09;4279189;33;34190;-93
2022/03/15 09:12:53;;;;;;;9.30;5.00;;;;;;;10.67;28.92;101205.53;4261539;33;32910;-93
2022/03/15 09:15:24;;;;;;;11.43;6.07;;;;;;;10.92;28.12;101205.75;4278467;33;33877;-95
2022/03/15 09:17:53;;;;;;;10.88;6.40;;;;;;;11.12;28.40;101206.84;4283972;33;33562;-94
2022/03/15 09:20:26;;;;;;;9.63;5.70;;;;;;;11.10;28.40;101201.62;4275641;33;33791;-95
2022/03/15 09:22:55;;;;;;;7.05;4.53;;;;;;;11.42;28.09;101198.41;4278978;33;33378;-94
2022/03/15 09:25:24;;;;;;;9.95;6.03;;;;;;;11.60;27.25;101191.59;4274440;33;33319;-94
2022/03/15 09:27:55;;;;;;;9.40;5.68;;;;;;;11.09;28.25;101186.91;4276697;33;33679;-92
2022/03/15 09:30:24;;;;;;;9.73;5.03;;;;;;;11.06;27.74;101184.25;4278791;33;34365;-94
2022/03/15 09:32:53;;;;;;;14.38;5.82;;;;;;;10.88;28.40;101178.91;4279150;33;34090;-94
2022/03/15 09:35:21;;;;;;;9.00;4.60;;;;;;;11.63;27.54;101182.09;4280609;33;32017;-94
2022/03/15 09:37:50;;;;;;;9.07;5.32;;;;;;;12.06;26.37;101176.31;4282974;33;34222;-94
2022/03/15 09:40:22;;;;;;;8.38;5.40;;;;;;;12.37;26.55;101177.28;4271961;33;34004;-94
2022/03/15 09:42:57;;;;;;;9.70;4.50;;;;;;;12.72;26.35;101179.13;4281577;33;32734;-95
2022/03/15 09:45:33;;;;;;;8.20;4.60;;;;;;;12.81;25.67;101171.31;4290771;33;33253;-95
2022/03/15 09:48:04;;;;;;;8.35;3.92;;;;;;;12.59;25.82;101173.88;4279035;33;34546;-94
2022/03/15 09:50:34;;;;;;;12.82;5.07;;;;;;;12.91;25.60;101178.28;4279674;33;36181;-95
2022/03/15 09:53:03;;;;;;;9.02;5.22;;;;;;;12.92;25.07;101172.19;4282836;33;33432;-95
2022/03/15 09:55:31;;;;;;;10.93;5.40;;;;;;;13.27;25.44;101167.88;4285137;33;33096;-93
2022/03/15 09:58:03;;;;;;;10.73;5.25;;;;;;;13.00;25.59;101164.41;4277943;33;33077;-95
2022/03/15 10:00:34;;;;;;;8.88;4.62;;;;;;;13.55;25.58;101163.50;4282286;33;34758;-95
2022/03/15 10:03:04;;;;;;;8.63;4.78;;;;;;;13.48;25.34;101162.66;4282663;33;34088;-95
2022/03/15 10:05:33;;;;;;;10.13;5.55;;;;;;;13.36;25.33;101157.44;4284040;33;33791;-95
2022/03/15 10:08:02;;;;;;;7.65;4.62;;;;;;;13.65;25.13;101152.19;4270375;33;33074;-95
2022/03/15 10:10:31;;;;;;;11.05;5.87;;;;;;;13.86;25.33;101149.50;4288230;33;34671;-93
2022/03/15 10:12:59;;;;;;;8.10;4.47;;;;;;;13.76;25.36;101154.78;4276658;33;167334;-94
2022/03/15 10:15:29;;;;;;;8.98;4.90;;;;;;;13.73;25.04;101157.41;4289989;33;33683;-95
2022/03/15 10:18:04;;;;;;;10.15;4.97;;;;;;;14.09;25.89;101154.66;4280982;33;32807;-95
2022/03/15 10:20:40;;;;;;;7.72;4.30;;;;;;;13.77;25.31;101151.28;4281133;33;33264;-94
2022/03/15 10:23:10;;;;;;;8.15;4.40;;;;;;;14.32;24.98;101152.81;4285515;33;33837;-93
2022/03/15 10:25:43;;;;;;;9.20;5.35;;;;;;;14.38;25.42;101144.97;4266567;33;32454;-94
2022/03/15 10:28:13;;;;;;;7.25;4.45;;;;;;;14.72;24.77;101150.88;4279049;33;33606;-94
2022/03/15 10:30:46;;;;;;;9.85;3.55;;;;;;;14.32;24.40;101143.22;4282796;33;33843;-95
2022/03/15 10:33:16;;;;;;;9.75;4.35;;;;;;;14.48;24.57;101138.81;4282794;33;34237;-95
2022/03/15 10:35:46;;;;;;;8.65;4.65;;;;;;;14.31;24.91;101136.28;4270721;33;32571;-95
2022/03/15 10:38:15;;;;;;;6.80;3.87;;;;;;;14.70;24.66;101126.50;4288014;33;33473;-95
2022/03/15 10:40:46;;;;;;;9.23;4.60;;;;;;;14.90;24.57;101123.72;4285812;33;33554;-95
2022/03/15 10:43:16;;;;;;;10.95;4.62;;;;;;;14.85;24.27;101115.94;4286145;33;34328;-95
2022/03/15 10:45:48;;;;;;;7.18;3.70;;;;;;;14.78;24.06;101102.94;4285147;33;32702;-96
2022/03/15 10:48:18;;;;;;;6.72;4.20;;;;;;;14.63;24.14;101107.38;4284541;33;33504;-94
2022/03/15 10:50:53;;;;;;;14.95;6.55;;;;;;;14.97;24.35;101098.41;4289089;33;33422;-94
2022/03/15 10:53:22;;;;;;;8.57;4.05;;;;;;;15.02;24.20;101102.72;4286531;33;35978;-96
2022/03/15 10:55:51;;;;;;;11.23;4.60;;;;;;;15.18;24.08;101089.53;4270048;33;32337;-95
2022/03/15 10:58:24;;;;;;;8.60;4.43;;;;;;;14.82;24.09;101082.00;4280792;33;34472;-95
2022/03/15 11:00:55;;;;;;;8.57;4.65;;;;;;;15.14;23.99;101083.44;4283487;33;34069;-94
2022/03/15 11:03:25;;;;;;;8.25;4.20;;;;;;;14.67;24.28;101076.91;4281573;33;33259;-94
2022/03/15 11:05:57;;;;;;;7.32;4.25;;;;;;;15.32;24.24;101061.50;4287784;33;32755;-94
2022/03/15 11:08:27;;;;;;;9.38;4.70;;;;;;;14.77;24.01;101062.88;4262664;33;33400;-94
2022/03/15 11:10:56;;;;;;;;;;;;;;;15.25;23.93;101047.63;4276669;33;33838;-93
2022/03/15 11:13:28;;;;;;;5.90;3.17;;;;;;;15.63;23.67;101045.44;4281759;33;33739;-95
2022/03/15 11:15:59;;;;;;;6.72;3.10;;;;;;;15.67;22.89;101042.75;4283343;33;33803;-95
2022/03/15 11:18:30;;;;;;;6.55;4.10;;;;;;;15.82;23.18;101027.78;4274315;33;32983;-94
2022/03/15 11:21:00;;;;;;;6.85;3.40;;;;;;;15.53;22.93;101029.84;4268689;33;32836;-95
2022/03/15 11:23:29;;;;;;;9.13;4.57;;;;;;;15.78;22.46;101019.97;4281920;33;35228;-95
2022/03/15 11:26:04;;;;;;;8.27;3.62;;;;;;;15.83;22.71;101016.44;4278545;33;33706;-94
2022/03/15 11:28:36;;;;;;;6.37;3.67;;;;;;;16.10;22.16;101009.94;4277521;33;33468;-94
2022/03/15 11:31:07;;;;;;;9.40;3.40;;;;;;;16.30;22.21;101004.41;4273707;33;33152;-94
2022/03/15 11:33:37;;;;;;;8.30;4.00;;;;;;;15.52;21.85;100999.34;4283581;33;33201;-94
2022/03/15 11:36:06;;;;;;;7.25;3.97;;;;;;;15.99;21.51;100991.75;4284629;33;33083;-93
2022/03/15 11:38:35;;;;;;;7.57;4.03;;;;;;;16.05;21.82;100986.44;4284025;33;34040;-94
2022/03/15 11:41:05;;;;;;;6.60;4.07;;;;;;;16.32;21.67;100971.19;4284057;33;33849;-94
2022/03/15 11:43:40;;;;;;;5.55;3.12;;;;;;;16.00;21.95;100967.34;4288231;33;35074;-94
2022/03/15 11:46:14;;;;;;;7.87;4.55;;;;;;;16.38;21.95;100965.84;4290145;33;33484;-94
2022/03/15 11:48:53;;;;;;;7.80;4.22;;;;;;;16.15;21.41;100959.25;4284108;33;33542;-95
2022/03/15 11:51:31;;;;;;;7.82;3.58;;;;;;;16.62;21.36;100944.50;4284677;33;33650;-95
2022/03/15 11:54:08;;;;;;;7.47;3.15;;;;;;;16.05;21.54;100938.47;4284251;33;33443;-94
2022/03/15 11:56:41;;;;;;;6.57;3.70;;;;;;;16.56;21.74;100935.88;4271723;33;31619;-95
2022/03/15 11:59:10;;;;;;;5.70;3.47;;;;;;;16.50;21.44;100923.72;4283845;33;34287;-95
2022/03/15 12:01:47;;;;;;;4.80;2.90;;;;;;;16.29;21.70;100911.87;4288084;33;33762;-94
2022/03/15 12:04:17;;;;;;;6.15;3.53;;;;;;;16.51;21.43;100906.28;4282637;33;34353;-94
2022/03/15 12:06:54;;;;;;;6.22;3.33;;;;;;;16.42;21.55;100904.66;4284823;33;33756;-95
2022/03/15 12:09:26;;;;;;;6.75;3.60;;;;;;;16.79;21.20;100906.62;4283522;33;33524;-94
2022/03/15 12:12:02;;;;;;;7.20;3.22;;;;;;;16.80;20.99;100893.50;4288146;33;33911;-95
2022/03/15 12:14:40;;;;;;;6.00;2.90;;;;;;;16.93;21.82;100899.38;4273840;33;33159;-94
2022/03/15 12:17:12;;;;;;;4.95;2.62;;;;;;;17.14;21.35;100887.56;4290286;33;33555;-96
2022/03/15 12:19:43;;;;;;;6.30;3.58;;;;;;;17.33;21.28;100884.56;4283623;33;33583;-95
2022/03/15 12:22:24;;;;;;;6.53;3.33;;;;;;;16.82;21.22;100888.25;4284114;33;34652;-96
2022/03/15 12:25:04;;;;;;;4.65;2.78;;;;;;;17.00;21.07;100890.47;4276055;33;33704;-94
2022/03/15 12:27:53;;;;;;;9.52;4.07;;;;;;;17.34;20.86;100870.56;4283776;33;33333;-95
2022/03/15 12:30:29;;;;;;;4.60;2.90;;;;;;;17.22;20.68;100874.31;4284502;33;33288;-95
2022/03/15 12:32:59;;;;;;;7.90;3.78;;;;;;;17.32;21.08;100873.19;4268741;33;32898;-95
2022/03/15 12:35:30;;;;;;;5.50;3.10;;;;;;;17.26;20.73;100865.47;4275811;33;33047;-94
2022/03/15 12:38:10;;;;;;;6.30;3.42;;;;;;;17.59;21.40;100870.84;4282760;33;32806;-95
2022/03/15 12:40:45;;;;;;;18.02;3.60;;;;;;;17.65;20.69;100865.47;4282583;33;34576;-94
2022/03/15 12:43:22;;;;;;;5.78;2.65;;;;;;;17.87;20.83;100857.97;4281077;33;34570;-95
2022/03/15 12:45:51;;;;;;;6.07;3.37;;;;;;;17.92;21.08;100856.94;4270289;33;32485;-95
2022/03/15 12:48:31;;;;;;;6.28;3.53;;;;;;;17.96;20.58;100855.13;4288270;33;33559;-95
2022/03/15 12:51:01;;;;;;;5.75;2.90;;;;;;;17.97;20.90;100854.19;4276367;33;32257;-95
2022/03/15 12:53:41;;;;;;;5.32;2.92;;;;;;;17.66;20.96;100843.56;4283539;33;33208;-96
2022/03/15 12:56:11;;;;;;;5.50;3.12;;;;;;;17.73;20.98;100828.53;4282601;33;33840;-95
2022/03/15 12:58:40;;;;;;;5.30;2.97;;;;;;;17.73;20.86;100821.50;4282164;33;33070;-96
2022/03/15 13:01:10;;;;;;;6.82;2.92;;;;;;;17.47;21.17;100822.16;4270225;33;32127;-95
2022/03/15 13:03:43;;;;;;;5.60;3.47;;;;;;;17.61;21.33;100827.91;4274400;33;32680;-95
2022/03/15 13:06:21;;;;;;;5.55;2.62;;;;;;;17.56;21.36;100828.94;4275559;33;32184;-96
2022/03/15 13:08:55;;;;;;;3.92;2.58;;;;;;;17.54;21.39;100838.59;4269419;33;32731;-96
2022/03/15 13:11:28;;;;;;;5.97;3.05;;;;;;;17.69;21.44;100833.87;4285100;33;34370;-96
2022/03/15 13:13:57;;;;;;;5.05;2.67;;;;;;;17.60;21.49;100828.84;4284080;33;34775;-95
2022/03/15 13:16:26;;;;;;;7.32;3.40;;;;;;;17.59;21.25;100824.50;4284192;33;33931;-96
2022/03/15 13:18:56;;;;;;;6.78;4.25;;;;;;;17.67;21.76;100814.66;4275654;33;32336;-95
2022/03/15 13:21:32;;;;;;;5.53;3.03;;;;;;;17.43;21.67;100815.25;4284727;33;35903;-96
2022/03/15 13:24:08;;;;;;;7.40;3.55;;;;;;;17.41;22.08;100817.91;4280459;33;33882;-95
2022/03/15 13:26:39;;;;;;;5.45;2.95;;;;;;;17.21;22.04;100809.66;4268987;33;31853;-95